Time;durP1;ratioP1;P1;durP2;ratioP2;P2;SDS_P1;SDS_P2;PMS_P1;PMS_P2;Temp;Humidity;BMP_temperature;BMP_pressure;BME280_temperature;BME280_humidity;BME280_pressure;Samples;Min_cycle;Max_cycle;Signal;HPM_P1;HPM_P2
2022/07/30 00:00:43;;;;;;;;;;;;;;;21.24;56.50;99792.25;1088142;54;19950;-81
2022/07/30 00:01:47;;;;;;;;;;;;;;;21.26;56.84;99790.13;1088123;54;20602;-81
2022/07/30 00:02:50;;;;;;;;;;;;;;;21.27;56.46;99789.06;1095942;31;20668;-80
2022/07/30 00:03:54;;;;;;;;;;;;;;;21.29;56.29;99795.13;1088131;54;19949;-80
2022/07/30 00:04:55;;;;;;;;;;;;;;;21.28;56.50;99789.91;1088162;54;19927;-80
2022/07/30 00:05:59;;;;;;;;;;;;;;;21.30;56.54;99796.78;1087727;54;19944;-80
2022/07/30 00:07:00;;;;;;;;;;;;;;;21.31;56.49;99800.31;1087683;54;19958;-80
2022/07/30 00:08:06;;;;;;;;;;;;;;;21.30;56.36;99796.78;1088062;47;19950;-80
2022/07/30 00:09:07;;;;;;;;;;;;;;;21.27;56.74;99799.94;1088119;54;19965;-80
2022/07/30 00:10:12;;;;;;;;;;;;;;;21.28;56.90;99800.78;1088317;54;20006;-80
2022/07/30 00:11:14;;;;;;;;;;;;;;;21.32;56.48;99799.28;1088405;54;19950;-80
2022/07/30 00:12:18;;;;;;;;;;;;;;;21.37;56.17;99801.31;1089150;46;19943;-81
2022/07/30 00:13:19;;;;;;;;;;;;;;;21.39;56.15;99799.22;1089704;46;19943;-81
2022/07/30 00:14:22;;;;;;;;;;;;;;;21.39;56.58;99807.38;1088473;54;19943;-80
2022/07/30 00:15:24;;;;;;;;;;;;;;;21.39;56.55;99810.94;1088477;54;19942;-80
2022/07/30 00:16:28;;;;;;;;;;;;;;;21.34;56.23;99825.22;1088440;54;19930;-81
2022/07/30 00:17:29;;;;;;;;;;;;;;;21.28;56.75;99817.09;1088416;54;19938;-80
2022/07/30 00:18:33;;;;;;;;;;;;;;;21.29;56.88;99822.31;1088476;54;19942;-80
2022/07/30 00:19:34;;;;;;;;;;;;;;;21.26;56.85;99821.91;1090285;46;19986;-79
2022/07/30 00:20:39;;;;;;;;;;;;;;;21.29;56.19;99826.94;1088783;46;19942;-80
2022/07/30 00:21:40;;;;;;;;;;;;;;;21.32;56.38;99826.47;1088423;54;19943;-81
2022/07/30 00:22:44;;;;;;;;;;;;;;;21.18;56.98;99831.16;1088391;54;19942;-80
2022/07/30 00:23:47;;;;;;;;;;;;;;;21.13;56.57;99833.72;1088127;46;19941;-81
2022/07/30 00:24:52;;;;;;;;;;;;;;;20.99;57.11;99841.13;1087980;54;19949;-80
2022/07/30 00:25:53;;;;;;;;;;;;;;;20.82;57.88;99843.50;1090185;39;20552;-80
2022/07/30 00:26:57;;;;;;;;;;;;;;;20.80;57.57;99832.88;1088473;54;19943;-81
2022/07/30 00:27:58;;;;;;;;;;;;;;;20.77;57.66;99840.63;1088465;54;19950;-80
2022/07/30 00:29:03;;;;;;;;;;;;;;;20.64;57.81;99836.06;1088468;54;19943;-79
2022/07/30 00:30:05;;;;;;;;;;;;;;;20.75;57.72;99827.25;1088448;54;19943;-80
2022/07/30 00:31:09;;;;;;;;;;;;;;;20.83;57.47;99832.41;1088411;54;19942;-81
2022/07/30 00:33:15;;;;;;;;;;;;;;;20.89;56.95;99822.56;1084720;54;19950;-78
2022/07/30 00:34:16;;;;;;;;;;;;;;;20.91;57.14;99825.91;1085302;54;19962;-79
2022/07/30 00:35:20;;;;;;;;;;;;;;;20.86;57.25;99823.03;1084922;54;20066;-78
2022/07/30 00:36:21;;;;;;;;;;;;;;;20.86;57.03;99823.03;1085248;54;19946;-78
2022/07/30 00:37:25;;;;;;;;;;;;;;;20.78;57.49;99826.81;1085166;54;19951;-78
2022/07/30 00:38:26;;;;;;;;;;;;;;;20.80;57.36;99821.16;1085180;54;19953;-77
2022/07/30 00:39:32;;;;;;;;;;;;;;;20.77;57.58;99829.75;1085494;54;19947;-80
2022/07/30 00:40:33;;;;;;;;;;;;;;;20.79;57.21;99823.06;1085451;54;19946;-79
2022/07/30 00:41:53;;;;;;;;;;;;;;;20.80;57.29;99815.72;1084738;54;19950;-80
2022/07/30 00:42:54;;;;;;;;;;;;;;;20.71;57.71;99821.38;1084715;54;19946;-79
2022/07/30 00:43:58;;;;;;;;;;;;;;;20.64;58.19;99823.31;1085153;54;19938;-81
2022/07/30 00:44:59;;;;;;;;;;;;;;;20.62;58.06;99822.69;1085494;54;19939;-78
2022/07/30 00:46:03;;;;;;;;;;;;;;;20.67;57.47;99824.75;1085347;54;20432;-78
2022/07/30 00:47:04;;;;;;;;;;;;;;;20.60;58.39;99824.78;1085225;54;19942;-80
2022/07/30 00:48:13;;;;;;;;;;;;;;;20.60;57.81;99819.34;1085766;54;20482;-78
2022/07/30 00:49:14;;;;;;;;;;;;;;;20.55;58.28;99825.44;1087262;54;19939;-78
2022/07/30 00:50:19;;;;;;;;;;;;;;;20.58;57.89;99830.44;1087114;54;19953;-78
2022/07/30 00:51:20;;;;;;;;;;;;;;;20.48;58.33;99831.97;1088121;46;19938;-77
2022/07/30 00:52:23;;;;;;;;;;;;;;;20.29;58.98;99829.09;1087718;46;20436;-78
2022/07/30 00:53:27;;;;;;;;;;;;;;;20.23;58.98;99824.50;1085847;54;19969;-77
2022/07/30 00:54:31;;;;;;;;;;;;;;;20.18;59.38;99824.34;1085285;54;19950;-79
2022/07/30 00:55:35;;;;;;;;;;;;;;;20.11;59.51;99827.06;1085051;54;19969;-77
2022/07/30 00:56:37;;;;;;;;;;;;;;;20.05;59.38;99826.03;1085510;54;19977;-79
2022/07/30 00:57:41;;;;;;;;;;;;;;;20.05;59.31;99822.50;1085150;54;19950;-78
2022/07/30 00:58:42;;;;;;;;;;;;;;;20.15;59.24;99820.19;1085516;39;20399;-79
2022/07/30 00:59:46;;;;;;;;;;;;;;;20.05;59.39;99820.59;1084500;54;19946;-79
2022/07/30 01:00:47;;;;;;;;;;;;;;;20.01;59.68;99824.81;1084591;54;19974;-80
2022/07/30 01:01:51;;;;;;;;;;;;;;;20.00;59.60;99815.00;1085117;54;19939;-80
2022/07/30 01:02:52;;;;;;;;;;;;;;;19.92;59.93;99828.78;1085113;54;19989;-79
2022/07/30 01:03:56;;;;;;;;;;;;;;;20.02;59.33;99820.19;1084479;54;19954;-78
2022/07/30 01:04:57;;;;;;;;;;;;;;;20.12;58.90;99819.78;1085034;54;19950;-78
2022/07/30 01:06:01;;;;;;;;;;;;;;;20.16;58.85;99818.28;1085257;54;19946;-77
2022/07/30 01:07:02;;;;;;;;;;;;;;;20.03;59.21;99809.13;1085473;39;20314;-78
2022/07/30 01:08:06;;;;;;;;;;;;;;;19.88;59.79;99817.53;1084827;54;20663;-77
2022/07/30 01:09:07;;;;;;;;;;;;;;;19.93;59.99;99811.47;1084944;39;20575;-79
2022/07/30 01:10:15;;;;;;;;;;;;;;;20.04;59.26;99804.56;1086366;39;20456;-79
2022/07/30 01:11:16;;;;;;;;;;;;;;;20.05;59.33;99803.50;1084548;54;19947;-78
2022/07/30 01:12:21;;;;;;;;;;;;;;;19.96;59.77;99802.91;1084965;54;19962;-79
2022/07/30 01:13:22;;;;;;;;;;;;;;;19.98;59.55;99811.66;1084979;54;19964;-78
2022/07/30 01:14:26;;;;;;;;;;;;;;;20.01;59.59;99823.97;1084796;54;19947;-78
2022/07/30 01:15:28;;;;;;;;;;;;;;;19.95;59.74;99823.78;1085026;54;19947;-80
2022/07/30 01:16:33;;;;;;;;;;;;;;;19.94;60.17;99826.69;1084374;54;19947;-78
2022/07/30 01:17:34;;;;;;;;;;;;;;;19.87;60.42;99823.16;1084155;54;20436;-79
2022/07/30 01:19:57;;;;;;;;;;;;;;;19.79;60.98;99827.72;1084712;54;19950;-78
2022/07/30 01:21:06;;;;;;;;;;;;;;;19.77;60.98;99821.69;1084817;54;19955;-79
2022/07/30 01:22:11;;;;;;;;;;;;;;;19.86;60.69;99818.78;1084528;54;19961;-79
2022/07/30 01:23:19;;;;;;;;;;;;;;;19.88;60.35;99824.81;1084609;54;19951;-79
2022/07/30 01:24:26;;;;;;;;;;;;;;;19.80;61.00;99815.84;1084661;54;19942;-78
2022/07/30 01:25:42;;;;;;;;;;;;;;;19.94;60.32;99804.97;1084959;54;19973;-77
2022/07/30 01:26:53;;;;;;;;;;;;;;;19.86;60.53;99821.47;1085411;54;19962;-77
2022/07/30 01:27:59;;;;;;;;;;;;;;;19.85;60.81;99822.50;1088518;46;20508;-78
2022/07/30 01:29:01;;;;;;;;;;;;;;;19.94;60.19;99813.97;1088871;54;19930;-78
2022/07/30 01:30:21;;;;;;;;;;;;;;;19.94;60.19;99816.69;1091627;46;19923;-79
2022/07/30 01:31:24;;;;;;;;;;;;;;;20.00;59.57;99823.13;1091441;46;19927;-79
2022/07/30 01:32:28;;;;;;;;;;;;;;;20.02;59.44;99818.34;1099133;46;19927;-80
2022/07/30 01:33:31;;;;;;;;;;;;;;;20.04;59.62;99829.78;1089511;46;19961;-78
2022/07/30 01:34:37;;;;;;;;;;;;;;;20.15;59.35;99822.03;1091965;46;19990;-79
2022/07/30 01:35:41;;;;;;;;;;;;;;;20.16;59.43;99821.84;1089034;46;19957;-79
2022/07/30 01:36:44;;;;;;;;;;;;;;;20.19;59.16;99813.25;1087923;54;19943;-78
2022/07/30 01:37:48;;;;;;;;;;;;;;;20.25;58.65;99823.28;1087102;46;19999;-77
2022/07/30 01:38:50;;;;;;;;;;;;;;;20.25;58.61;99822.44;1083762;54;20449;-78
2022/07/30 01:39:54;;;;;;;;;;;;;;;20.27;58.74;99823.88;1084753;39;20413;-78
2022/07/30 01:40:58;;;;;;;;;;;;;;;20.27;58.56;99817.63;1083618;54;19938;-77
2022/07/30 01:42:06;;;;;;;;;;;;;;;20.19;58.94;99815.16;1084042;54;19971;-78
2022/07/30 01:43:07;;;;;;;;;;;;;;;20.21;58.50;99821.22;1084286;54;19946;-78
2022/07/30 01:44:13;;;;;;;;;;;;;;;20.26;58.64;99819.50;1084501;54;19976;-78
2022/07/30 01:45:14;;;;;;;;;;;;;;;20.19;58.43;99812.44;1084360;54;19947;-78
2022/07/30 01:46:19;;;;;;;;;;;;;;;20.04;59.50;99810.78;1085683;54;19946;-78
2022/07/30 01:47:21;;;;;;;;;;;;;;;19.97;59.57;99820.84;1085036;54;19950;-78
2022/07/30 01:48:26;;;;;;;;;;;;;;;19.92;59.86;99815.22;1084681;54;19947;-78
2022/07/30 01:49:28;;;;;;;;;;;;;;;19.84;60.14;99820.84;1085301;54;19973;-78
2022/07/30 01:50:32;;;;;;;;;;;;;;;19.85;60.09;99815.25;1084652;54;19986;-78
2022/07/30 01:51:33;;;;;;;;;;;;;;;19.86;60.20;99813.34;1084462;54;20480;-78
2022/07/30 01:52:40;;;;;;;;;;;;;;;19.91;60.06;99803.53;1084477;54;19953;-78
2022/07/30 01:53:42;;;;;;;;;;;;;;;20.03;59.33;99806.41;1086110;39;20449;-78
2022/07/30 01:54:46;;;;;;;;;;;;;;;19.96;60.01;99808.31;1084525;54;20038;-79
2022/07/30 01:55:47;;;;;;;;;;;;;;;19.87;60.18;99812.31;1084641;54;19950;-78
2022/07/30 01:56:56;;;;;;;;;;;;;;;19.87;60.10;99813.16;1084424;54;19947;-79
2022/07/30 01:57:58;;;;;;;;;;;;;;;19.89;60.14;99805.63;1084596;54;19947;-78
2022/07/30 01:59:02;;;;;;;;;;;;;;;19.83;60.56;99814.56;1084335;54;19955;-79
2022/07/30 02:00:05;;;;;;;;;;;;;;;19.91;60.35;99802.72;1084366;54;20655;-79
2022/07/30 02:01:09;;;;;;;;;;;;;;;19.97;59.95;99799.13;1084773;54;20444;-79
2022/07/30 02:02:10;;;;;;;;;;;;;;;19.90;60.41;99809.19;1084818;54;19950;-78
2022/07/30 02:03:14;;;;;;;;;;;;;;;19.89;60.20;99804.78;1085045;39;20400;-79
2022/07/30 02:04:15;;;;;;;;;;;;;;;19.85;60.46;99804.38;1084476;54;19953;-79
2022/07/30 02:05:19;;;;;;;;;;;;;;;19.84;60.43;99797.25;1084664;54;19945;-78
2022/07/30 02:06:21;;;;;;;;;;;;;;;19.81;60.54;99800.38;1084104;54;19969;-78
2022/07/30 02:07:29;;;;;;;;;;;;;;;19.76;60.79;99803.72;1084314;54;20535;-77
2022/07/30 02:08:34;;;;;;;;;;;;;;;19.66;61.50;99803.31;1085372;54;19942;-80
2022/07/30 02:09:39;;;;;;;;;;;;;;;19.64;61.39;99800.03;1087960;54;19998;-79
2022/07/30 02:10:42;;;;;;;;;;;;;;;19.60;61.94;99806.88;1083421;54;19960;-77
2022/07/30 02:13:08;;;;;;;;;;;;;;;19.50;62.06;99810.03;1084082;54;19946;-78
2022/07/30 02:14:13;;;;;;;;;;;;;;;19.47;62.41;99807.75;1083756;54;19947;-78
2022/07/30 02:15:19;;;;;;;;;;;;;;;19.52;62.39;99809.81;1083973;54;20707;-78
2022/07/30 02:16:23;;;;;;;;;;;;;;;19.52;62.30;99807.09;1083872;54;19959;-80
2022/07/30 02:17:30;;;;;;;;;;;;;;;19.48;62.41;99806.69;1083709;54;20062;-79
2022/07/30 02:18:35;;;;;;;;;;;;;;;19.47;62.62;99811.28;1084025;54;19946;-79
2022/07/30 02:19:42;;;;;;;;;;;;;;;19.45;63.00;99813.38;1083783;54;19951;-79
2022/07/30 02:20:44;;;;;;;;;;;;;;;19.42;63.13;99813.78;1084126;54;19983;-80
2022/07/30 02:21:50;;;;;;;;;;;;;;;19.42;62.78;99816.50;1083787;54;19957;-77
2022/07/30 02:22:54;;;;;;;;;;;;;;;19.32;63.55;99808.75;1083911;54;19985;-79
2022/07/30 02:23:58;;;;;;;;;;;;;;;19.30;63.40;99815.44;1084065;54;19946;-79
2022/07/30 02:25:00;;;;;;;;;;;;;;;19.24;63.77;99819.00;1083550;54;19946;-78
2022/07/30 02:26:05;;;;;;;;;;;;;;;19.19;63.77;99827.75;1083598;54;19950;-78
2022/07/30 02:27:11;;;;;;;;;;;;;;;19.21;63.90;99822.09;1083947;39;20348;-78
2022/07/30 02:28:20;;;;;;;;;;;;;;;19.13;64.14;99826.69;1083570;54;19970;-79
2022/07/30 02:29:21;;;;;;;;;;;;;;;19.08;64.16;99826.47;1083304;54;20628;-77
2022/07/30 02:30:28;;;;;;;;;;;;;;;19.01;64.40;99833.75;1083463;54;19975;-78
2022/07/30 02:31:30;;;;;;;;;;;;;;;18.92;64.87;99834.94;1082903;54;19950;-77
2022/07/30 02:32:36;;;;;;;;;;;;;;;18.92;64.57;99832.25;1083310;54;19950;-78
2022/07/30 02:33:39;;;;;;;;;;;;;;;18.93;64.45;99832.09;1083294;54;19946;-77
2022/07/30 02:34:44;;;;;;;;;;;;;;;18.80;65.04;99835.53;1083585;54;20049;-77
2022/07/30 02:35:48;;;;;;;;;;;;;;;18.75;64.87;99838.03;1083744;39;20353;-76
2022/07/30 02:36:50;;;;;;;;;;;;;;;18.72;65.25;99835.72;1083668;54;19969;-78
2022/07/30 02:37:56;;;;;;;;;;;;;;;18.73;65.23;99837.41;1083233;54;19947;-77
2022/07/30 02:38:57;;;;;;;;;;;;;;;18.67;65.14;99839.03;1083134;54;19962;-77
2022/07/30 02:40:02;;;;;;;;;;;;;;;18.74;65.19;99844.47;1083090;54;19957;-78
2022/07/30 02:41:03;;;;;;;;;;;;;;;18.68;64.98;99838.00;1084588;39;20377;-78
2022/07/30 02:42:08;;;;;;;;;;;;;;;18.73;64.80;99842.81;1083981;54;19951;-78
2022/07/30 02:43:12;;;;;;;;;;;;;;;18.69;65.04;99839.69;1083963;54;19950;-79
2022/07/30 02:44:16;;;;;;;;;;;;;;;18.69;64.97;99847.81;1083639;54;19970;-78
2022/07/30 02:45:20;;;;;;;;;;;;;;;18.73;65.11;99844.69;1084507;31;20533;-79
2022/07/30 02:46:22;;;;;;;;;;;;;;;18.76;64.94;99850.53;1084141;39;20352;-78
2022/07/30 02:47:28;;;;;;;;;;;;;;;18.73;65.11;99837.41;1083473;54;20635;-77
2022/07/30 02:48:40;;;;;;;;;;;;;;;18.69;64.91;99849.69;1085130;39;20321;-78
2022/07/30 02:49:53;;;;;;;;;;;;;;;18.71;64.96;99853.00;1083463;39;20322;-78
2022/07/30 02:50:57;;;;;;;;;;;;;;;18.76;64.93;99855.09;1083702;54;19971;-78
2022/07/30 02:52:01;;;;;;;;;;;;;;;18.75;64.86;99848.88;1083606;54;19970;-77
2022/07/30 02:53:06;;;;;;;;;;;;;;;18.74;65.09;99858.03;1083696;54;19973;-79
2022/07/30 02:54:08;;;;;;;;;;;;;;;18.78;64.79;99863.88;1083882;54;19992;-79
2022/07/30 02:55:14;;;;;;;;;;;;;;;18.75;65.04;99862.41;1083643;54;20433;-78
2022/07/30 02:56:16;;;;;;;;;;;;;;;18.66;65.25;99859.03;1083486;54;19977;-79
2022/07/30 02:57:21;;;;;;;;;;;;;;;18.63;65.61;99862.16;1083733;54;19946;-78
2022/07/30 02:58:26;;;;;;;;;;;;;;;18.66;65.58;99860.91;1083554;54;19946;-79
2022/07/30 02:59:31;;;;;;;;;;;;;;;18.52;65.79;99863.56;1083560;54;19954;-78
2022/07/30 03:00:35;;;;;;;;;;;;;;;18.50;65.97;99862.94;1083291;54;19947;-77
2022/07/30 03:01:37;;;;;;;;;;;;;;;18.45;66.22;99870.81;1083029;54;19994;-78
2022/07/30 03:02:41;;;;;;;;;;;;;;;18.47;66.44;99870.59;1083001;54;19953;-77
2022/07/30 03:03:44;;;;;;;;;;;;;;;18.42;66.61;99868.50;1083611;54;19947;-77
2022/07/30 03:04:48;;;;;;;;;;;;;;;18.43;66.32;99872.88;1083659;54;19946;-78
2022/07/30 03:05:50;;;;;;;;;;;;;;;18.43;66.31;99874.75;1083487;54;19954;-78
2022/07/30 03:06:55;;;;;;;;;;;;;;;18.53;65.80;99870.63;1083364;54;19970;-78
2022/07/30 03:08:01;;;;;;;;;;;;;;;18.48;66.03;99873.13;1083351;54;19954;-78
2022/07/30 03:09:03;;;;;;;;;;;;;;;18.46;66.38;99869.78;1083636;54;20463;-78
2022/07/30 03:10:08;;;;;;;;;;;;;;;18.42;66.38;99871.19;1083703;54;20029;-78
2022/07/30 03:11:10;;;;;;;;;;;;;;;18.40;66.02;99870.59;1083440;54;19962;-79
2022/07/30 03:12:15;;;;;;;;;;;;;;;18.34;66.62;99871.38;1083264;54;19950;-78
2022/07/30 03:13:21;;;;;;;;;;;;;;;18.37;66.31;99876.41;1083544;54;19977;-77
2022/07/30 03:14:22;;;;;;;;;;;;;;;18.32;66.49;99868.88;1083390;54;19973;-78
2022/07/30 03:15:30;;;;;;;;;;;;;;;18.34;66.30;99871.38;1083014;54;20445;-78
2022/07/30 03:16:33;;;;;;;;;;;;;;;18.35;66.49;99873.03;1083438;39;20404;-79
2022/07/30 03:17:39;;;;;;;;;;;;;;;18.35;66.45;99878.47;1082829;54;20191;-77
2022/07/30 03:18:43;;;;;;;;;;;;;;;18.37;66.18;99870.97;1083472;54;19950;-78
2022/07/30 03:19:47;;;;;;;;;;;;;;;18.37;66.25;99876.41;1083283;54;19958;-77
2022/07/30 03:20:49;;;;;;;;;;;;;;;18.43;65.96;99874.75;1083346;54;19971;-78
2022/07/30 03:21:54;;;;;;;;;;;;;;;18.55;65.79;99879.41;1083639;39;20409;-78
2022/07/30 03:22:57;;;;;;;;;;;;;;;18.47;65.70;99882.28;1083427;54;19981;-78
2022/07/30 03:24:02;;;;;;;;;;;;;;;18.54;65.58;99891.25;1083203;54;19950;-77
2022/07/30 03:25:04;;;;;;;;;;;;;;;18.48;65.63;99883.09;1082784;54;19974;-77
2022/07/30 03:26:10;;;;;;;;;;;;;;;18.61;65.44;99885.06;1083266;54;19938;-77
2022/07/30 03:27:12;;;;;;;;;;;;;;;18.60;65.50;99883.38;1083088;54;19981;-77
2022/07/30 03:28:17;;;;;;;;;;;;;;;18.59;65.21;99879.00;1083425;54;19946;-78
2022/07/30 03:29:19;;;;;;;;;;;;;;;18.58;65.31;99882.75;1083080;54;19973;-78
2022/07/30 03:30:23;;;;;;;;;;;;;;;18.57;65.44;99887.31;1083245;54;20528;-79
2022/07/30 03:31:28;;;;;;;;;;;;;;;18.55;65.69;99887.53;1083631;39;20357;-78
2022/07/30 03:32:32;;;;;;;;;;;;;;;18.55;65.45;99894.81;1083378;54;19946;-78
2022/07/30 03:33:34;;;;;;;;;;;;;;;18.55;65.62;99884.81;1083242;54;19950;-78
2022/07/30 03:34:39;;;;;;;;;;;;;;;18.52;65.35;99889.78;1083301;54;19953;-77
2022/07/30 03:35:41;;;;;;;;;;;;;;;18.55;65.27;99892.09;1083018;54;19969;-78
2022/07/30 03:36:45;;;;;;;;;;;;;;;18.59;65.41;99889.84;1083508;54;19958;-78
2022/07/30 03:37:49;;;;;;;;;;;;;;;18.62;65.05;99889.41;1083428;39;20325;-78
2022/07/30 03:38:52;;;;;;;;;;;;;;;18.61;65.04;99893.19;1082914;54;20520;-77
2022/07/30 03:39:56;;;;;;;;;;;;;;;18.58;64.91;99894.41;1082790;54;19950;-77
2022/07/30 03:41:01;;;;;;;;;;;;;;;18.58;65.22;99893.56;1083242;54;19949;-76
2022/07/30 03:42:02;;;;;;;;;;;;;;;18.51;65.56;99893.53;1083369;54;19939;-77
2022/07/30 03:43:06;;;;;;;;;;;;;;;18.51;65.42;99890.81;1083059;54;19970;-78
2022/07/30 03:44:07;;;;;;;;;;;;;;;18.49;65.19;99895.59;1083529;54;19977;-76
2022/07/30 03:45:12;;;;;;;;;;;;;;;18.51;65.16;99897.09;1083705;54;19958;-77
2022/07/30 03:46:14;;;;;;;;;;;;;;;18.56;65.01;99891.06;1083665;54;19985;-77
2022/07/30 03:47:22;;;;;;;;;;;;;;;18.71;64.56;99896.31;1084463;39;20364;-78
2022/07/30 03:48:24;;;;;;;;;;;;;;;18.80;64.28;99903.22;1083793;54;19953;-77
2022/07/30 03:49:28;;;;;;;;;;;;;;;18.85;63.83;99900.75;1083723;54;19954;-77
2022/07/30 03:50:29;;;;;;;;;;;;;;;18.93;63.72;99904.34;1083762;54;19946;-77
2022/07/30 03:51:33;;;;;;;;;;;;;;;18.99;63.26;99898.13;1083629;54;19985;-77
2022/07/30 03:52:37;;;;;;;;;;;;;;;19.00;63.38;99900.63;1083668;54;19969;-79
2022/07/30 03:53:42;;;;;;;;;;;;;;;19.04;63.07;99892.94;1084374;39;20562;-78
2022/07/30 03:54:43;;;;;;;;;;;;;;;19.07;62.88;99908.78;1084182;54;19947;-77
2022/07/30 03:55:47;;;;;;;;;;;;;;;19.04;62.92;99903.78;1083765;54;19954;-78
2022/07/30 03:56:48;;;;;;;;;;;;;;;19.05;62.98;99902.75;1084306;54;20417;-77
2022/07/30 03:57:52;;;;;;;;;;;;;;;19.06;62.72;99907.13;1084317;54;19970;-78
2022/07/30 03:58:54;;;;;;;;;;;;;;;19.07;62.71;99897.97;1084153;54;19938;-78
2022/07/30 03:59:57;;;;;;;;;;;;;;;19.06;62.83;99904.41;1084543;54;19947;-78
2022/07/30 04:00:58;;;;;;;;;;;;;;;19.13;62.84;99904.41;1084414;54;19951;-78
2022/07/30 04:02:03;;;;;;;;;;;;;;;19.12;62.52;99909.00;1084258;54;19954;-78
2022/07/30 04:03:07;;;;;;;;;;;;;;;18.93;62.84;99907.06;1084406;54;19958;-77
2022/07/30 04:04:11;;;;;;;;;;;;;;;18.89;63.15;99911.19;1084067;54;19982;-78
2022/07/30 04:05:12;;;;;;;;;;;;;;;18.82;63.11;99917.41;1084035;54;19953;-78
2022/07/30 04:06:16;;;;;;;;;;;;;;;18.84;63.35;99915.34;1084093;54;19947;-78
2022/07/30 04:07:17;;;;;;;;;;;;;;;18.95;62.69;99916.66;1083961;54;19947;-78
2022/07/30 04:08:21;;;;;;;;;;;;;;;18.84;63.15;99914.53;1084717;39;20428;-77
2022/07/30 04:09:23;;;;;;;;;;;;;;;18.84;63.40;99915.34;1083807;54;19954;-77
2022/07/30 04:10:27;;;;;;;;;;;;;;;18.90;62.97;99912.84;1083847;54;19958;-77
2022/07/30 04:11:28;;;;;;;;;;;;;;;18.84;62.95;99919.94;1083793;54;19962;-78
2022/07/30 04:12:32;;;;;;;;;;;;;;;18.81;62.48;99918.44;1083613;54;19954;-77
2022/07/30 04:13:33;;;;;;;;;;;;;;;18.75;62.57;99918.44;1083641;54;19950;-78
2022/07/30 04:14:41;;;;;;;;;;;;;;;18.68;62.43;99911.09;1083729;54;19946;-77
2022/07/30 04:15:44;;;;;;;;;;;;;;;18.69;62.51;99914.66;1083674;54;19946;-76
2022/07/30 04:16:49;;;;;;;;;;;;;;;18.80;62.18;99918.66;1083702;54;19947;-77
2022/07/30 04:17:52;;;;;;;;;;;;;;;18.63;62.94;99915.44;1083275;54;20511;-76
2022/07/30 04:19:00;;;;;;;;;;;;;;;18.60;63.47;99924.00;1083880;54;19947;-77
2022/07/30 04:20:05;;;;;;;;;;;;;;;18.64;63.41;99925.25;1084111;39;20369;-76
2022/07/30 04:21:10;;;;;;;;;;;;;;;18.59;63.60;99919.59;1083441;54;19957;-77
2022/07/30 04:22:15;;;;;;;;;;;;;;;18.69;63.40;99922.78;1083578;54;19969;-78
2022/07/30 04:23:16;;;;;;;;;;;;;;;18.80;62.96;99926.78;1085684;54;19954;-79
2022/07/30 04:24:20;;;;;;;;;;;;;;;18.80;62.90;99924.88;1087619;54;19966;-78
2022/07/30 04:25:22;;;;;;;;;;;;;;;18.75;62.80;99931.97;1086475;46;20448;-77
2022/07/30 04:26:25;;;;;;;;;;;;;;;18.74;62.93;99931.13;1083814;54;19957;-78
2022/07/30 04:27:27;;;;;;;;;;;;;;;18.68;62.92;99927.34;1083936;54;19946;-77
2022/07/30 04:28:31;;;;;;;;;;;;;;;18.61;63.22;99931.06;1083846;54;19957;-77
2022/07/30 04:29:33;;;;;;;;;;;;;;;18.53;63.36;99938.31;1083892;54;19943;-76
2022/07/30 04:30:37;;;;;;;;;;;;;;;18.49;63.52;99941.59;1084107;54;19947;-78
2022/07/30 04:31:38;;;;;;;;;;;;;;;18.55;63.46;99941.66;1083877;54;19946;-77
2022/07/30 04:32:43;;;;;;;;;;;;;;;18.70;63.12;99933.41;1083804;54;19953;-78
2022/07/30 04:33:44;;;;;;;;;;;;;;;18.77;62.69;99938.84;1084179;54;19971;-77
2022/07/30 04:34:51;;;;;;;;;;;;;;;18.74;62.77;99943.84;1084783;39;20369;-77
2022/07/30 04:35:52;;;;;;;;;;;;;;;18.73;62.86;99939.47;1084461;54;19938;-77
2022/07/30 04:36:56;;;;;;;;;;;;;;;18.74;62.82;99947.38;1084063;54;20445;-77
2022/07/30 04:37:59;;;;;;;;;;;;;;;18.70;62.96;99936.13;1083993;54;19946;-77
2022/07/30 04:39:15;;;;;;;;;;;;;;;18.67;62.97;99936.50;1086344;54;19967;-77
2022/07/30 04:40:16;;;;;;;;;;;;;;;18.67;63.00;99941.91;1086479;47;19947;-77
2022/07/30 04:41:20;;;;;;;;;;;;;;;18.65;63.10;99937.75;1086298;54;20646;-77
2022/07/30 04:42:21;;;;;;;;;;;;;;;18.69;63.43;99947.16;1085770;39;20353;-77
2022/07/30 04:43:26;;;;;;;;;;;;;;;18.73;63.33;99945.69;1084927;54;19970;-77
2022/07/30 04:44:28;;;;;;;;;;;;;;;18.68;63.23;99948.19;1084748;54;19950;-78
2022/07/30 04:45:31;;;;;;;;;;;;;;;18.63;63.25;99958.75;1084614;54;19947;-77
2022/07/30 04:46:32;;;;;;;;;;;;;;;18.67;62.99;99958.16;1085293;46;19946;-77
2022/07/30 04:47:40;;;;;;;;;;;;;;;18.65;63.09;99954.00;1085428;54;19954;-77
2022/07/30 04:48:41;;;;;;;;;;;;;;;18.63;63.07;99956.06;1085020;54;19973;-77
2022/07/30 04:49:45;;;;;;;;;;;;;;;18.59;63.28;99955.63;1085068;54;19950;-76
2022/07/30 04:50:50;;;;;;;;;;;;;;;18.60;63.22;99962.72;1085525;54;19946;-76
2022/07/30 04:51:55;;;;;;;;;;;;;;;18.61;63.13;99958.16;1085087;54;19939;-76
2022/07/30 04:52:56;;;;;;;;;;;;;;;18.72;62.45;99952.16;1084931;54;19947;-77
2022/07/30 04:54:01;;;;;;;;;;;;;;;18.76;62.41;99960.69;1085648;46;19959;-77
2022/07/30 04:55:03;;;;;;;;;;;;;;;18.68;62.88;99965.25;1084859;54;19946;-77
2022/07/30 04:56:07;;;;;;;;;;;;;;;18.67;62.83;99963.56;1085473;39;20345;-77
2022/07/30 04:57:09;;;;;;;;;;;;;;;18.69;62.33;99961.50;1085380;54;19954;-77
2022/07/30 04:58:15;;;;;;;;;;;;;;;18.73;62.38;99966.53;1085258;46;19973;-76
2022/07/30 04:59:16;;;;;;;;;;;;;;;18.80;62.31;99968.22;1084655;54;19946;-77
2022/07/30 05:00:20;;;;;;;;;;;;;;;18.90;61.94;99967.00;1084732;54;19961;-76
2022/07/30 05:01:23;;;;;;;;;;;;;;;18.93;61.44;99961.22;1084849;54;19946;-77
2022/07/30 05:02:30;;;;;;;;;;;;;;;19.02;61.49;99970.84;1084704;54;20649;-77
2022/07/30 05:03:33;;;;;;;;;;;;;;;19.07;61.43;99965.69;1084926;54;19943;-77
2022/07/30 05:04:37;;;;;;;;;;;;;;;19.05;61.37;99970.47;1085470;54;19946;-78
2022/07/30 05:05:39;;;;;;;;;;;;;;;19.04;61.42;99974.22;1084954;54;19947;-78
2022/07/30 05:06:46;;;;;;;;;;;;;;;19.06;61.03;99966.72;1085181;39;20648;-77
2022/07/30 05:07:47;;;;;;;;;;;;;;;19.10;61.14;99973.38;1084733;54;19951;-76
2022/07/30 05:08:52;;;;;;;;;;;;;;;19.16;61.03;99977.16;1084875;54;20012;-78
2022/07/30 05:09:53;;;;;;;;;;;;;;;19.21;60.99;99973.84;1085724;46;19975;-77
2022/07/30 05:10:57;;;;;;;;;;;;;;;19.20;60.45;99970.31;1085418;46;19938;-77
2022/07/30 05:11:58;;;;;;;;;;;;;;;19.24;60.32;99970.72;1084790;54;19939;-76
2022/07/30 05:13:02;;;;;;;;;;;;;;;19.31;59.81;99964.31;1083851;54;19998;-78
2022/07/30 05:14:03;;;;;;;;;;;;;;;19.30;59.67;99973.47;1083449;54;19951;-76
2022/07/30 05:15:07;;;;;;;;;;;;;;;19.30;59.51;99972.63;1083220;46;19952;-77
2022/07/30 05:16:08;;;;;;;;;;;;;;;19.28;59.60;99975.53;1083801;54;19939;-76
2022/07/30 05:17:12;;;;;;;;;;;;;;;19.29;59.28;99973.66;1083843;54;19962;-76
2022/07/30 05:18:13;;;;;;;;;;;;;;;19.32;59.25;99974.06;1084051;54;19946;-77
2022/07/30 05:19:17;;;;;;;;;;;;;;;19.32;59.57;99982.22;1083770;54;19947;-76
2022/07/30 05:20:18;;;;;;;;;;;;;;;19.36;59.48;99971.81;1083475;54;19942;-76
2022/07/30 05:21:22;;;;;;;;;;;;;;;19.40;59.38;99973.06;1083715;54;19973;-76
2022/07/30 05:22:29;;;;;;;;;;;;;;;19.34;59.34;99973.88;1083783;54;19947;-76
2022/07/30 05:23:33;;;;;;;;;;;;;;;19.32;59.44;99971.38;1083071;54;19957;-76
2022/07/30 05:24:37;;;;;;;;;;;;;;;19.28;59.63;99970.13;1083458;54;19951;-76
2022/07/30 05:25:38;;;;;;;;;;;;;;;19.32;59.69;99975.97;1084057;39;20361;-76
2022/07/30 05:26:42;;;;;;;;;;;;;;;19.35;59.13;99970.16;1084398;39;20365;-76
2022/07/30 05:27:43;;;;;;;;;;;;;;;19.33;59.50;99967.63;1083800;54;19993;-76
2022/07/30 05:28:47;;;;;;;;;;;;;;;19.28;59.60;99974.69;1083542;54;19946;-75
2022/07/30 05:29:48;;;;;;;;;;;;;;;19.25;59.34;99970.53;1083285;54;19946;-77
2022/07/30 05:30:52;;;;;;;;;;;;;;;19.36;59.26;99977.25;1083262;54;19958;-75
2022/07/30 05:31:55;;;;;;;;;;;;;;;19.49;58.82;99974.53;1083439;54;19938;-76
2022/07/30 05:32:56;;;;;;;;;;;;;;;19.56;58.50;99969.13;1083159;39;20377;-76
2022/07/30 05:34:00;;;;;;;;;;;;;;;19.59;58.76;99971.44;1082927;54;19958;-76
2022/07/30 05:35:01;;;;;;;;;;;;;;;19.65;58.52;99975.19;1083188;54;19951;-77
2022/07/30 05:36:05;;;;;;;;;;;;;;;19.72;58.48;99980.63;1082852;54;19946;-76